createdAt,value
2022-12-04T00:02:18.604Z,1.20
2022-12-04T00:04:45.257Z,1.10
2022-12-04T00:07:11.883Z,1.20
2022-12-04T00:09:38.444Z,1.20
2022-12-04T00:12:05.162Z,1.30
2022-12-04T00:14:31.822Z,1.20
2022-12-04T00:16:58.452Z,1.10
2022-12-04T00:19:25.041Z,1.00
2022-12-04T00:21:52.101Z,1.00
2022-12-04T00:24:18.700Z,1.00
2022-12-04T00:26:45.283Z,1.10
2022-12-04T00:29:11.893Z,1.30
2022-12-04T00:31:40.323Z,1.40
2022-12-04T00:34:08.267Z,1.30
2022-12-04T00:36:35.052Z,1.20
2022-12-04T00:39:03.316Z,1.20
2022-12-04T00:41:31.923Z,1.20
2022-12-04T00:44:01.833Z,1.20
2022-12-04T00:46:28.854Z,1.20
2022-12-04T00:48:55.825Z,1.10
2022-12-04T00:51:24.672Z,1.20
2022-12-04T00:53:52.754Z,1.20
2022-12-04T00:56:24.087Z,1.20
2022-12-04T00:58:55.463Z,1.20
2022-12-04T01:01:22.722Z,1.30
2022-12-04T01:03:50.255Z,1.20
2022-12-04T01:06:28.605Z,1.20
2022-12-04T01:08:56.638Z,1.10
2022-12-04T01:11:25.068Z,1.00
2022-12-04T01:13:51.845Z,0.90
2022-12-04T01:16:21.546Z,0.90
2022-12-04T01:18:48.851Z,1.00
2022-12-04T01:21:15.889Z,1.10
2022-12-04T01:23:42.600Z,1.00
2022-12-04T01:26:09.190Z,1.00
2022-12-04T01:28:36.249Z,1.10
2022-12-04T01:31:05.645Z,1.10
2022-12-04T01:33:34.224Z,1.10
2022-12-04T01:36:02.064Z,1.00
2022-12-04T01:38:28.930Z,1.00
2022-12-04T01:40:56.305Z,1.00
2022-12-04T01:43:23.805Z,1.10
2022-12-04T01:45:54.442Z,1.00
2022-12-04T01:48:38.934Z,1.00
2022-12-04T01:51:18.971Z,1.10
2022-12-04T01:54:01.380Z,1.10
2022-12-04T01:56:43.037Z,1.10
2022-12-04T01:59:11.465Z,1.20
2022-12-04T02:01:52.145Z,1.10
2022-12-04T02:04:19.265Z,1.10
2022-12-04T02:06:45.884Z,1.20
2022-12-04T02:09:12.493Z,1.30
2022-12-04T02:11:54.466Z,1.40
2022-12-04T02:14:33.433Z,1.40
2022-12-04T02:17:22.204Z,1.30
2022-12-04T02:20:00.204Z,1.30
2022-12-04T02:22:50.259Z,1.20
2022-12-04T02:25:37.707Z,1.10
2022-12-04T02:28:32.801Z,1.00
2022-12-04T02:31:01.071Z,1.00
2022-12-04T02:33:43.782Z,1.00
2022-12-04T02:36:20.386Z,1.20
2022-12-04T02:39:01.797Z,1.20
2022-12-04T02:41:44.918Z,1.10
2022-12-04T02:44:28.286Z,1.10
2022-12-04T02:46:59.852Z,1.00
2022-12-04T02:49:35.129Z,1.10
2022-12-04T02:52:03.573Z,1.10
2022-12-04T02:54:35.868Z,1.00
2022-12-04T02:57:07.002Z,1.00
2022-12-04T02:59:42.426Z,1.00
2022-12-04T03:02:51.038Z,1.00
2022-12-04T03:05:24.308Z,1.00
2022-12-04T03:08:04.044Z,1.10
2022-12-04T03:10:34.938Z,1.00
2022-12-04T03:13:11.548Z,1.10
2022-12-04T03:15:46.798Z,1.20
2022-12-04T03:18:26.718Z,1.20
2022-12-04T03:21:01.523Z,1.40
2022-12-04T03:23:35.232Z,1.40
2022-12-04T03:26:09.926Z,1.50
2022-12-04T03:29:07.182Z,1.40
2022-12-04T03:32:19.848Z,1.30
2022-12-04T03:34:46.381Z,1.20
2022-12-04T03:37:19.473Z,1.10
2022-12-04T03:39:49.516Z,1.10
2022-12-04T03:42:40.744Z,1.30
2022-12-04T03:45:16.982Z,1.30
2022-12-04T03:47:54.009Z,1.40
2022-12-04T03:50:42.664Z,1.40
2022-12-04T03:53:16.491Z,1.30
2022-12-04T03:55:50.701Z,1.30
2022-12-04T03:58:23.149Z,1.20
2022-12-04T04:00:53.001Z,1.20
2022-12-04T04:03:29.566Z,1.30
2022-12-04T04:06:04.237Z,1.30
2022-12-04T04:08:35.812Z,1.20
2022-12-04T04:11:20.679Z,1.20
2022-12-04T04:13:58.626Z,1.20
2022-12-04T04:16:28.806Z,1.30
2022-12-04T04:18:58.461Z,1.30
2022-12-04T04:21:32.414Z,1.20
2022-12-04T04:23:59.371Z,1.10
2022-12-04T04:26:28.813Z,1.10
2022-12-04T04:28:55.409Z,1.20
2022-12-04T04:31:40.429Z,1.20
2022-12-04T04:34:42.430Z,1.20
2022-12-04T04:37:32.956Z,1.20
2022-12-04T04:40:35.405Z,1.30
2022-12-04T04:43:10.838Z,1.30
2022-12-04T04:45:47.003Z,1.30
2022-12-04T04:48:39.492Z,1.30
2022-12-04T04:51:07.031Z,1.40
2022-12-04T04:53:57.961Z,1.40
2022-12-04T04:56:24.933Z,1.40
2022-12-04T04:58:51.517Z,1.30
2022-12-04T05:01:20.742Z,1.40
2022-12-04T05:03:47.386Z,1.40
2022-12-04T05:06:14.102Z,1.40
2022-12-04T05:08:41.135Z,1.40
2022-12-04T05:11:12.474Z,1.30
2022-12-04T05:13:39.041Z,1.30
2022-12-04T05:16:08.175Z,1.30
2022-12-04T05:18:35.532Z,1.30
2022-12-04T05:21:07.139Z,1.30
2022-12-04T05:23:33.944Z,1.30
2022-12-04T05:26:01.937Z,1.30
2022-12-04T05:28:28.623Z,1.50
2022-12-04T05:30:56.675Z,1.40
2022-12-04T05:33:23.779Z,1.40
2022-12-04T05:35:58.235Z,1.40
2022-12-04T05:38:24.726Z,1.40
2022-12-04T05:40:51.332Z,1.40
2022-12-04T05:43:18.738Z,1.40
2022-12-04T05:45:45.447Z,1.40
2022-12-04T05:48:12.025Z,1.40
2022-12-04T05:50:39.192Z,1.40
2022-12-04T05:53:05.763Z,1.40
2022-12-04T05:55:32.360Z,1.30
2022-12-04T05:57:58.953Z,1.40
2022-12-04T06:00:25.758Z,1.50
2022-12-04T06:02:52.385Z,1.50
2022-12-04T06:05:18.990Z,1.40
2022-12-04T06:07:45.690Z,1.40
2022-12-04T06:10:12.300Z,1.50
2022-12-04T06:12:38.952Z,1.50
2022-12-04T06:15:06.087Z,1.60
2022-12-04T06:17:32.673Z,1.50
2022-12-04T06:19:59.727Z,1.60
2022-12-04T06:22:26.524Z,1.50
2022-12-04T06:24:53.508Z,1.50
2022-12-04T06:27:28.286Z,1.50
2022-12-04T06:29:55.844Z,1.50
2022-12-04T06:32:22.638Z,1.50
2022-12-04T06:34:53.264Z,1.50
2022-12-04T06:37:21.718Z,1.50
2022-12-04T06:39:48.475Z,1.50
2022-12-04T06:42:16.121Z,1.60
2022-12-04T06:44:42.726Z,1.50
2022-12-04T06:47:09.632Z,1.50
2022-12-04T06:49:36.287Z,1.60
2022-12-04T06:52:03.394Z,1.60
2022-12-04T06:54:29.979Z,1.60
2022-12-04T06:56:56.553Z,1.60
2022-12-04T06:59:23.108Z,1.60
2022-12-04T07:01:49.785Z,1.80
2022-12-04T07:04:16.451Z,1.70
2022-12-04T07:06:43.108Z,1.70
2022-12-04T07:09:15.553Z,1.70
2022-12-04T07:11:43.901Z,1.70
2022-12-04T07:14:11.386Z,1.70
2022-12-04T07:16:41.514Z,1.70
2022-12-04T07:19:10.785Z,1.70
2022-12-04T07:21:37.366Z,1.70
2022-12-04T07:24:04.061Z,1.70
2022-12-04T07:26:31.184Z,1.70
2022-12-04T07:28:58.785Z,1.70
2022-12-04T07:31:26.996Z,1.80
2022-12-04T07:33:54.249Z,1.80
2022-12-04T07:36:22.356Z,1.80
2022-12-04T07:38:49.440Z,1.80
2022-12-04T07:41:16.420Z,1.80
2022-12-04T07:43:43.380Z,1.80
2022-12-04T07:46:15.907Z,1.80
2022-12-04T07:48:42.949Z,1.80
2022-12-04T07:51:15.823Z,1.80
2022-12-04T07:53:43.180Z,1.80
2022-12-04T07:56:10.924Z,1.80
2022-12-04T07:58:37.515Z,1.90
2022-12-04T08:01:11.882Z,2.00
2022-12-04T08:03:45.256Z,2.00
2022-12-04T08:06:14.045Z,1.90
2022-12-04T08:08:40.619Z,1.90
2022-12-04T08:11:10.523Z,1.90
2022-12-04T08:13:37.341Z,1.90
2022-12-04T08:16:08.614Z,2.00
2022-12-04T08:18:35.515Z,1.90
2022-12-04T08:21:14.182Z,1.90
2022-12-04T08:23:42.357Z,1.90
2022-12-04T08:26:09.953Z,1.90
2022-12-04T08:28:37.035Z,1.90
2022-12-04T08:31:06.103Z,1.90
2022-12-04T08:33:33.829Z,1.90
2022-12-04T08:36:00.482Z,2.10
2022-12-04T08:38:27.180Z,2.10
2022-12-04T08:40:53.745Z,2.20
2022-12-04T08:43:20.331Z,2.10
2022-12-04T08:45:58.863Z,2.10
2022-12-04T08:48:26.176Z,2.10
2022-12-04T08:50:53.276Z,2.10
2022-12-04T08:53:20.229Z,2.10
2022-12-04T08:55:47.105Z,2.20
2022-12-04T08:58:13.768Z,2.20
2022-12-04T09:00:40.661Z,2.20
2022-12-04T09:03:07.263Z,2.20
2022-12-04T09:05:33.825Z,2.20
2022-12-04T09:08:00.440Z,2.20
2022-12-04T09:10:27.116Z,2.20
2022-12-04T09:12:53.803Z,2.20
2022-12-04T09:15:20.365Z,2.30
2022-12-04T09:17:46.952Z,2.30
2022-12-04T09:20:13.581Z,2.30
2022-12-04T09:23:02.159Z,2.30
2022-12-04T09:25:26.762Z,2.30
2022-12-04T09:27:53.397Z,2.30
2022-12-04T09:30:20.046Z,2.30
2022-12-04T09:32:46.626Z,2.40
2022-12-04T09:35:13.227Z,2.40
2022-12-04T09:37:39.817Z,2.40
2022-12-04T09:40:07.518Z,2.40
2022-12-04T09:42:36.865Z,2.40
2022-12-04T09:45:08.193Z,2.40
2022-12-04T09:47:47.428Z,2.40
2022-12-04T09:50:22.730Z,2.50
2022-12-04T09:53:03.301Z,2.40
2022-12-04T09:55:58.704Z,2.50
2022-12-04T09:58:46.774Z,2.40
2022-12-04T10:01:26.850Z,2.50
2022-12-04T10:03:54.937Z,2.40
2022-12-04T10:06:33.576Z,2.50
2022-12-04T10:09:18.695Z,2.50
2022-12-04T10:12:02.117Z,2.50
2022-12-04T10:15:04.100Z,2.60
2022-12-04T10:17:49.281Z,2.50
2022-12-04T10:20:34.183Z,2.50
2022-12-04T10:23:25.245Z,2.50
2022-12-04T10:25:54.638Z,2.60
2022-12-04T10:28:30.707Z,2.60
2022-12-04T10:31:02.035Z,2.60
2022-12-04T10:33:43.641Z,2.60
2022-12-04T10:36:15.152Z,2.60
2022-12-04T10:38:59.392Z,2.60
2022-12-04T10:42:04.419Z,2.60
2022-12-04T10:44:31.247Z,2.60
2022-12-04T10:47:02.985Z,2.60
2022-12-04T10:49:31.892Z,2.60
2022-12-04T10:51:58.585Z,2.60
2022-12-04T10:54:50.490Z,2.60
2022-12-04T10:57:17.215Z,2.70
2022-12-04T10:59:57.273Z,2.70
2022-12-04T11:02:32.940Z,2.70
2022-12-04T11:05:02.435Z,2.60
2022-12-04T11:07:43.013Z,2.70
2022-12-04T11:10:28.464Z,2.70
2022-12-04T11:13:20.137Z,2.70
2022-12-04T11:15:49.090Z,2.70
2022-12-04T11:18:23.229Z,2.60
2022-12-04T11:20:54.186Z,2.70
2022-12-04T11:23:22.582Z,2.70
2022-12-04T11:25:51.903Z,2.70
2022-12-04T11:28:41.307Z,2.70
2022-12-04T11:31:11.267Z,2.70
2022-12-04T11:33:45.948Z,2.70
2022-12-04T11:36:40.467Z,2.70
2022-12-04T11:39:07.021Z,2.70
2022-12-04T11:41:33.753Z,2.70
2022-12-04T11:44:01.018Z,2.70
2022-12-04T11:46:32.706Z,2.70
2022-12-04T11:48:59.683Z,2.70
2022-12-04T11:51:38.299Z,2.70
2022-12-04T11:54:25.983Z,2.70
2022-12-04T11:57:21.008Z,2.70
2022-12-04T12:00:08.866Z,2.80
2022-12-04T12:02:57.894Z,2.70
2022-12-04T12:05:51.933Z,2.80
2022-12-04T12:08:18.460Z,2.70
2022-12-04T12:11:13.963Z,2.70
2022-12-04T12:14:23.963Z,2.70
2022-12-04T12:17:11.648Z,2.80
2022-12-04T12:19:59.922Z,2.80
2022-12-04T12:22:56.648Z,2.70
2022-12-04T12:25:30.918Z,2.70
2022-12-04T12:28:16.289Z,2.70
2022-12-04T12:31:17.273Z,2.80
2022-12-04T12:33:51.841Z,2.70
2022-12-04T12:36:20.843Z,2.70
2022-12-04T12:38:57.113Z,2.70
2022-12-04T12:41:38.208Z,2.70
2022-12-04T12:44:32.877Z,2.70
2022-12-04T12:47:13.198Z,2.70
2022-12-04T12:50:04.021Z,2.80
2022-12-04T12:52:59.653Z,2.70
2022-12-04T12:55:33.216Z,2.70
2022-12-04T12:58:04.398Z,2.60
2022-12-04T13:00:37.785Z,2.60
2022-12-04T13:03:28.170Z,2.60
2022-12-04T13:05:59.881Z,2.70
2022-12-04T13:08:31.929Z,2.60
2022-12-04T13:11:06.074Z,2.70
2022-12-04T13:13:35.924Z,2.80
2022-12-04T13:16:15.541Z,2.80
2022-12-04T13:18:53.112Z,2.80
2022-12-04T13:21:32.885Z,2.70
2022-12-04T13:24:31.273Z,2.70
2022-12-04T13:27:08.702Z,2.70
2022-12-04T13:29:59.792Z,2.70
2022-12-04T13:32:46.113Z,2.70
2022-12-04T13:35:42.495Z,2.70
2022-12-04T13:38:18.006Z,2.70
2022-12-04T13:40:55.238Z,2.70
2022-12-04T13:43:44.553Z,2.70
2022-12-04T13:46:34.541Z,2.70
2022-12-04T13:49:23.524Z,2.70
2022-12-04T13:51:50.437Z,2.70
2022-12-04T13:54:16.971Z,2.70
2022-12-04T13:56:45.035Z,2.60
2022-12-04T13:59:22.622Z,2.60
2022-12-04T14:01:52.825Z,2.60
2022-12-04T14:04:45.418Z,2.60
2022-12-04T14:07:32.551Z,2.60
2022-12-04T14:10:02.829Z,2.60
2022-12-04T14:12:37.646Z,2.60
2022-12-04T14:15:08.283Z,2.60
2022-12-04T14:17:38.052Z,2.70
2022-12-04T14:20:26.548Z,2.60
2022-12-04T14:22:53.365Z,2.60
2022-12-04T14:25:33.903Z,2.60
2022-12-04T14:28:12.193Z,2.60
2022-12-04T14:30:39.663Z,2.60
2022-12-04T14:33:15.532Z,2.50
2022-12-04T14:35:57.572Z,2.50
2022-12-04T14:38:25.773Z,2.50
2022-12-04T14:40:55.063Z,2.50
2022-12-04T14:43:39.425Z,2.50
2022-12-04T14:46:24.830Z,2.50
2022-12-04T14:49:10.503Z,2.60
2022-12-04T14:52:01.052Z,2.60
2022-12-04T14:54:51.363Z,2.60
2022-12-04T14:57:24.013Z,2.60
2022-12-04T14:59:55.017Z,2.50
2022-12-04T15:02:34.952Z,2.60
2022-12-04T15:05:02.652Z,2.60
2022-12-04T15:07:31.677Z,2.60
2022-12-04T15:10:00.934Z,2.60
2022-12-04T15:12:27.536Z,2.50
2022-12-04T15:14:54.602Z,2.50
2022-12-04T15:17:21.473Z,2.60
2022-12-04T15:19:48.061Z,2.50
2022-12-04T15:22:23.897Z,2.50
2022-12-04T15:24:52.507Z,2.50
2022-12-04T15:27:27.423Z,2.50
2022-12-04T15:29:59.473Z,2.50
2022-12-04T15:32:27.001Z,2.50
2022-12-04T15:35:00.723Z,2.40
2022-12-04T15:37:29.864Z,2.40
2022-12-04T15:39:57.926Z,2.40
2022-12-04T15:42:26.214Z,2.40
2022-12-04T15:45:15.881Z,2.40
2022-12-04T15:47:42.394Z,2.30
2022-12-04T15:50:17.692Z,2.30
2022-12-04T15:53:05.310Z,2.20
2022-12-04T15:55:53.485Z,2.30
2022-12-04T15:58:22.301Z,2.30
2022-12-04T16:00:58.856Z,2.30
2022-12-04T16:03:44.071Z,2.30
2022-12-04T16:06:29.716Z,2.20
2022-12-04T16:09:19.031Z,2.20
2022-12-04T16:11:45.600Z,2.20
2022-12-04T16:14:12.122Z,2.10
2022-12-04T16:16:41.155Z,2.20
2022-12-04T16:19:16.099Z,2.20
2022-12-04T16:21:43.095Z,2.20
2022-12-04T16:24:12.026Z,2.20
2022-12-04T16:26:38.600Z,2.30
2022-12-04T16:29:05.172Z,2.20
2022-12-04T16:31:31.981Z,2.20
2022-12-04T16:33:58.612Z,2.20
2022-12-04T16:36:25.189Z,2.20
2022-12-04T16:38:51.755Z,2.20
2022-12-04T16:41:19.491Z,2.20
2022-12-04T16:43:55.333Z,2.20
2022-12-04T16:46:25.078Z,2.20
2022-12-04T16:48:52.364Z,2.20
2022-12-04T16:51:26.273Z,2.20
2022-12-04T16:53:53.935Z,2.20
2022-12-04T16:56:21.608Z,2.30
2022-12-04T16:58:48.372Z,2.30
2022-12-04T17:01:27.717Z,2.30
2022-12-04T17:03:54.476Z,2.30
2022-12-04T17:06:21.169Z,2.40
2022-12-04T17:08:47.747Z,2.40
2022-12-04T17:11:17.284Z,2.30
2022-12-04T17:13:44.506Z,2.40
2022-12-04T17:16:14.852Z,2.40
2022-12-04T17:18:42.251Z,2.40
2022-12-04T17:21:11.100Z,2.40
2022-12-04T17:23:38.232Z,2.40
2022-12-04T17:26:08.743Z,2.40
2022-12-04T17:28:35.724Z,2.40
2022-12-04T17:31:03.140Z,2.30
2022-12-04T17:33:29.913Z,2.30
2022-12-04T17:35:56.722Z,2.30
2022-12-04T17:38:23.289Z,2.20
2022-12-04T17:41:03.076Z,2.30
2022-12-04T17:43:31.307Z,2.20
2022-12-04T17:45:58.332Z,2.20
2022-12-04T17:48:25.662Z,2.20
2022-12-04T17:51:04.929Z,2.20
2022-12-04T17:53:31.522Z,2.10
2022-12-04T17:56:03.325Z,2.10
2022-12-04T17:58:31.185Z,2.10
2022-12-04T18:01:08.630Z,2.10
2022-12-04T18:03:36.202Z,2.10
2022-12-04T18:06:25.009Z,2.20
2022-12-04T18:08:52.153Z,2.20
2022-12-04T18:11:20.945Z,2.20
2022-12-04T18:13:56.142Z,2.30
2022-12-04T18:16:23.391Z,2.30
2022-12-04T18:18:52.303Z,2.20
2022-12-04T18:21:19.146Z,2.20
2022-12-04T18:23:45.713Z,2.20
2022-12-04T18:26:14.891Z,2.20
2022-12-04T18:28:41.617Z,2.20
2022-12-04T18:31:08.633Z,2.20
2022-12-04T18:33:37.831Z,2.20
2022-12-04T18:36:05.719Z,2.20
2022-12-04T18:38:32.668Z,2.20
2022-12-04T18:41:04.088Z,2.20
2022-12-04T18:43:33.581Z,2.20
2022-12-04T18:46:07.095Z,2.20
2022-12-04T18:48:34.479Z,2.20
2022-12-04T18:51:01.219Z,2.20
2022-12-04T18:53:27.824Z,2.20
2022-12-04T18:55:54.668Z,2.20
2022-12-04T18:58:21.492Z,2.20
2022-12-04T19:00:48.540Z,2.20
2022-12-04T19:03:15.369Z,2.20
2022-12-04T19:05:51.302Z,2.10
2022-12-04T19:08:18.049Z,2.20
2022-12-04T19:10:44.685Z,2.20
2022-12-04T19:13:11.310Z,2.20
2022-12-04T19:15:44.818Z,2.10
2022-12-04T19:18:11.481Z,2.10
2022-12-04T19:20:42.830Z,2.10
2022-12-04T19:23:09.839Z,2.10
2022-12-04T19:25:36.564Z,2.10
2022-12-04T19:28:04.504Z,2.10
2022-12-04T19:30:32.973Z,2.10
2022-12-04T19:32:59.676Z,2.10
2022-12-04T19:35:26.258Z,2.10
2022-12-04T19:37:56.555Z,2.10
2022-12-04T19:40:23.495Z,2.10
2022-12-04T19:42:50.091Z,2.20
2022-12-04T19:45:16.750Z,2.20
2022-12-04T19:47:43.313Z,2.20
2022-12-04T19:50:10.436Z,2.10
2022-12-04T19:52:37.013Z,2.10
2022-12-04T19:55:03.923Z,2.10
2022-12-04T19:57:30.480Z,2.20
2022-12-04T19:59:57.065Z,2.10
2022-12-04T20:02:23.689Z,2.10
2022-12-04T20:04:50.301Z,2.10
2022-12-04T20:07:16.881Z,2.10
2022-12-04T20:09:54.799Z,2.10
2022-12-04T20:12:21.418Z,2.10
2022-12-04T20:14:47.980Z,2.10
2022-12-04T20:17:14.662Z,2.10
2022-12-04T20:19:41.314Z,2.10
2022-12-04T20:22:07.891Z,2.10
2022-12-04T20:24:34.464Z,2.10
2022-12-04T20:27:01.098Z,2.10
2022-12-04T20:29:27.660Z,2.10
2022-12-04T20:31:54.231Z,2.10
2022-12-04T20:34:20.849Z,2.10
2022-12-04T20:36:48.442Z,2.10
2022-12-04T20:39:16.804Z,2.10
2022-12-04T20:41:43.606Z,2.10
2022-12-04T20:44:13.353Z,2.10
2022-12-04T20:46:40.649Z,2.10
2022-12-04T20:49:10.028Z,2.10
2022-12-04T20:51:39.070Z,2.10
2022-12-04T20:54:07.201Z,2.10
2022-12-04T20:56:36.046Z,2.00
2022-12-04T20:59:10.578Z,2.00
2022-12-04T21:01:37.792Z,2.00
2022-12-04T21:04:05.606Z,2.00
2022-12-04T21:06:35.482Z,2.00
2022-12-04T21:09:07.615Z,2.00
2022-12-04T21:11:46.125Z,2.00
2022-12-04T21:14:18.587Z,2.00
2022-12-04T21:16:45.540Z,2.00
2022-12-04T21:19:15.045Z,2.00
2022-12-04T21:21:41.885Z,1.90
2022-12-04T21:24:11.829Z,1.90
2022-12-04T21:26:38.679Z,1.80
2022-12-04T21:29:06.391Z,1.70
2022-12-04T21:31:33.501Z,1.80
2022-12-04T21:34:01.737Z,1.80
2022-12-04T21:36:29.239Z,1.80
2022-12-04T21:38:56.904Z,1.80
2022-12-04T21:41:23.868Z,1.90
2022-12-04T21:43:50.423Z,1.80
2022-12-04T21:46:16.991Z,1.80
2022-12-04T21:48:43.570Z,1.80
2022-12-04T21:51:21.485Z,1.80
2022-12-04T21:53:56.710Z,1.70
2022-12-04T21:56:23.463Z,1.70
2022-12-04T21:58:50.706Z,1.70
2022-12-04T22:01:19.277Z,1.70
2022-12-04T22:03:46.066Z,1.60
2022-12-04T22:06:12.643Z,1.60
2022-12-04T22:08:41.102Z,1.60
2022-12-04T22:11:09.604Z,1.60
2022-12-04T22:13:37.280Z,1.50
2022-12-04T22:16:05.615Z,1.50
2022-12-04T22:18:33.211Z,1.50
2022-12-04T22:21:03.136Z,1.50
2022-12-04T22:23:29.771Z,1.50
2022-12-04T22:25:56.381Z,1.60
2022-12-04T22:28:22.962Z,1.50
2022-12-04T22:30:49.521Z,1.50
2022-12-04T22:33:16.071Z,1.60
2022-12-04T22:35:42.613Z,1.60
2022-12-04T22:38:09.186Z,1.60
2022-12-04T22:40:37.528Z,1.60
2022-12-04T22:43:04.138Z,1.60
2022-12-04T22:45:30.714Z,1.60
2022-12-04T22:47:57.274Z,1.60
2022-12-04T22:50:23.848Z,1.70
2022-12-04T22:52:50.403Z,1.60
2022-12-04T22:55:17.053Z,1.70
2022-12-04T22:57:43.594Z,1.70
2022-12-04T23:00:10.604Z,1.60
2022-12-04T23:02:37.218Z,1.60
2022-12-04T23:05:04.226Z,1.60
2022-12-04T23:07:30.930Z,1.60
2022-12-04T23:09:57.725Z,1.60
2022-12-04T23:12:24.483Z,1.60
2022-12-04T23:14:51.109Z,1.60
2022-12-04T23:17:17.698Z,1.60
2022-12-04T23:19:44.264Z,1.60
2022-12-04T23:22:10.842Z,1.60
2022-12-04T23:24:37.400Z,1.60
2022-12-04T23:27:04.113Z,1.50
2022-12-04T23:29:52.109Z,1.50
2022-12-04T23:32:17.250Z,1.40
2022-12-04T23:34:43.862Z,1.50
2022-12-04T23:37:10.461Z,1.50
2022-12-04T23:39:37.045Z,1.50
2022-12-04T23:42:03.710Z,1.50
2022-12-04T23:44:30.369Z,1.60
2022-12-04T23:46:57.014Z,1.60
2022-12-04T23:49:23.696Z,1.70
2022-12-04T23:51:50.252Z,1.70
2022-12-04T23:54:16.806Z,1.70
2022-12-04T23:56:44.126Z,1.60
2022-12-04T23:59:10.738Z,1.70
